createdAt,value
2018-11-22T00:01:36.148Z,32.3
2018-11-22T00:04:44.970Z,32.3
2018-11-22T00:07:50.840Z,32.3
2018-11-22T00:10:56.802Z,32.4
2018-11-22T00:14:02.668Z,32.3
2018-11-22T00:17:08.702Z,32.3
2018-11-22T00:20:14.659Z,32.3
2018-11-22T00:23:20.612Z,32.3
2018-11-22T00:26:27.408Z,32.4
2018-11-22T00:29:33.341Z,32.3
2018-11-22T00:32:39.434Z,32.3
2018-11-22T00:35:45.504Z,32.3
2018-11-22T00:38:51.442Z,32.3
2018-11-22T00:41:57.315Z,32.3
2018-11-22T00:45:03.359Z,32.3
2018-11-22T00:48:09.422Z,32.3
2018-11-22T00:51:15.295Z,32.2
2018-11-22T00:54:21.241Z,32.2
2018-11-22T00:57:27.110Z,32.3
2018-11-22T01:00:33.118Z,32.3
2018-11-22T01:03:39.220Z,32.3
2018-11-22T01:06:45.098Z,32.2
2018-11-22T01:09:51.136Z,32.2
2018-11-22T01:12:57.093Z,32.2
2018-11-22T01:16:03.054Z,32.2
2018-11-22T01:19:09.015Z,32.2
2018-11-22T01:22:14.886Z,32.2
2018-11-22T01:25:20.934Z,32.2
2018-11-22T01:28:26.813Z,32.2
2018-11-22T01:31:32.758Z,32.2
2018-11-22T01:34:38.722Z,32.2
2018-11-22T01:37:44.660Z,32.1
2018-11-22T01:40:50.735Z,32.1
2018-11-22T01:43:56.690Z,32.1
2018-11-22T01:47:02.656Z,32.1
2018-11-22T01:50:08.616Z,32.1
2018-11-22T01:53:14.679Z,32.2
2018-11-22T01:56:20.548Z,32.1
2018-11-22T01:59:26.505Z,32.1
2018-11-22T02:02:32.570Z,32
2018-11-22T02:05:38.819Z,31.6
2018-11-22T02:08:44.692Z,31.7
2018-11-22T02:11:50.635Z,31.8
2018-11-22T02:14:56.697Z,31.7
2018-11-22T02:18:02.579Z,31.8
2018-11-22T02:21:08.632Z,31.7
2018-11-22T02:24:14.684Z,31.6
2018-11-22T02:27:20.653Z,31.6
2018-11-22T02:30:26.601Z,31.5
2018-11-22T02:33:32.659Z,31.4
2018-11-22T02:36:38.639Z,31.3
2018-11-22T02:39:44.591Z,31.2
2018-11-22T02:42:50.745Z,31.1
2018-11-22T02:45:56.720Z,31
2018-11-22T02:49:02.767Z,31
2018-11-22T02:52:08.653Z,30.8
2018-11-22T02:55:14.655Z,30.7
2018-11-22T02:58:20.657Z,30.6
2018-11-22T03:01:26.616Z,30.5
2018-11-22T03:04:32.790Z,30.4
2018-11-22T03:07:38.854Z,30.3
2018-11-22T03:10:44.813Z,30.2
2018-11-22T03:13:50.854Z,30.1
2018-11-22T03:16:56.736Z,29.9
2018-11-22T03:20:02.986Z,29.8
2018-11-22T03:23:08.854Z,29.7
2018-11-22T03:26:14.794Z,29.7
2018-11-22T03:29:20.685Z,29.5
2018-11-22T03:32:26.730Z,29.4
2018-11-22T03:35:32.787Z,29.3
2018-11-22T03:38:38.755Z,29.4
2018-11-22T03:41:44.811Z,29.3
2018-11-22T03:44:50.868Z,29.3
2018-11-22T03:47:56.792Z,29.2
2018-11-22T03:51:02.680Z,29.1
2018-11-22T03:54:08.657Z,29
2018-11-22T03:57:14.714Z,28.9
2018-11-22T04:00:20.578Z,28.8
2018-11-22T04:03:26.628Z,28.8
2018-11-22T04:06:32.582Z,28.7
2018-11-22T04:09:38.560Z,28.8
2018-11-22T04:12:44.714Z,28.5
2018-11-22T04:15:50.666Z,28.6
2018-11-22T04:18:56.722Z,28.4
2018-11-22T04:22:02.683Z,28.4
2018-11-22T04:25:08.745Z,28.4
2018-11-22T04:28:14.712Z,28.4
2018-11-22T04:31:20.779Z,28.5
2018-11-22T04:34:26.656Z,28.2
2018-11-22T04:37:32.785Z,28.2
2018-11-22T04:40:38.711Z,28.2
2018-11-22T04:43:44.704Z,28.1
2018-11-22T04:46:50.662Z,28.1
2018-11-22T04:49:56.630Z,28.1
2018-11-22T04:53:02.684Z,28.1
2018-11-22T04:56:08.644Z,28.3
2018-11-22T04:59:14.605Z,28.2
2018-11-22T05:02:20.565Z,28.2
2018-11-22T05:05:26.524Z,28.1
2018-11-22T05:08:32.409Z,28.1
2018-11-22T05:11:38.416Z,28.2
2018-11-22T05:14:44.403Z,28
2018-11-22T05:17:50.344Z,28
2018-11-22T05:20:56.324Z,28
2018-11-22T05:24:02.287Z,27.9
2018-11-22T05:27:08.219Z,27.8
2018-11-22T05:30:14.277Z,27.9
2018-11-22T05:33:20.269Z,27.8
2018-11-22T05:36:26.222Z,27.7
2018-11-22T05:39:32.181Z,28
2018-11-22T05:42:38.060Z,27.9
2018-11-22T05:45:44.116Z,28.1
2018-11-22T05:48:50.168Z,30
2018-11-22T05:51:56.131Z,29.6
2018-11-22T05:55:02.092Z,28.5
2018-11-22T05:58:08.177Z,28.3
2018-11-22T06:01:16.975Z,27.9
2018-11-22T06:04:22.850Z,27.7
2018-11-22T06:07:28.891Z,27.8
2018-11-22T06:10:34.864Z,27.6
2018-11-22T06:13:40.753Z,28.1
2018-11-22T06:16:46.884Z,27.8
2018-11-22T06:19:52.944Z,27.7
2018-11-22T06:22:58.900Z,27.9
2018-11-22T06:26:04.869Z,27.7
2018-11-22T06:29:10.928Z,27.5
2018-11-22T06:32:16.802Z,27.6
2018-11-22T06:35:25.733Z,27.8
2018-11-22T06:38:31.607Z,27.8
2018-11-22T06:41:37.634Z,27.4
2018-11-22T06:44:43.501Z,27.4
2018-11-22T06:47:49.654Z,27.6
2018-11-22T06:50:58.801Z,27.2
2018-11-22T06:54:04.685Z,27.6
2018-11-22T06:57:10.823Z,27.3
2018-11-22T07:00:16.884Z,27.3
2018-11-22T07:03:23.034Z,27
2018-11-22T07:06:29.092Z,26.9
2018-11-22T07:09:35.163Z,26.9
2018-11-22T07:12:41.116Z,27
2018-11-22T07:15:47.330Z,27
2018-11-22T07:18:53.346Z,26.9
2018-11-22T07:21:59.309Z,26.9
2018-11-22T07:25:05.270Z,27
2018-11-22T07:28:11.329Z,27
2018-11-22T07:31:17.597Z,27
2018-11-22T07:34:23.467Z,26.9
2018-11-22T07:37:29.717Z,27
2018-11-22T07:40:35.900Z,26.9
2018-11-22T07:43:42.029Z,27.2
2018-11-22T07:46:47.912Z,27
2018-11-22T07:49:54.171Z,27
2018-11-22T07:53:00.236Z,27.1
2018-11-22T07:56:08.913Z,27.2
2018-11-22T07:59:14.914Z,27.3
2018-11-22T08:02:20.995Z,27.2
2018-11-22T08:05:26.918Z,27.3
2018-11-22T08:08:35.662Z,26.8
2018-11-22T08:11:41.825Z,27
2018-11-22T08:14:49.806Z,27
2018-11-22T08:17:55.691Z,27.1
2018-11-22T08:21:05.645Z,27.2
2018-11-22T08:24:12.616Z,27.3
2018-11-22T08:27:21.763Z,27.3
2018-11-22T08:30:27.649Z,27.5
2018-11-22T08:33:33.525Z,27.4
2018-11-22T08:36:39.538Z,27.2
2018-11-22T08:39:45.607Z,27.1
2018-11-22T08:42:55.773Z,27
2018-11-22T08:46:02.955Z,27.8
2018-11-22T08:49:08.935Z,27.2
2018-11-22T08:52:15.000Z,27.4
2018-11-22T08:55:20.989Z,27.4
2018-11-22T08:58:27.003Z,27.6
2018-11-22T09:01:33.078Z,27.4
2018-11-22T09:04:40.047Z,27
2018-11-22T09:07:46.008Z,27.1
2018-11-22T09:10:52.171Z,27.1
2018-11-22T09:13:58.232Z,27
2018-11-22T09:17:04.232Z,26.8
2018-11-22T09:20:10.353Z,26.7
2018-11-22T09:23:17.421Z,26.7
2018-11-22T09:26:23.504Z,26.7
2018-11-22T09:29:29.463Z,26.4
2018-11-22T09:32:44.506Z,26.3
2018-11-22T09:35:50.495Z,26.3
2018-11-22T09:38:56.555Z,26.1
2018-11-22T09:42:02.664Z,26.1
2018-11-22T09:45:12.092Z,26.2
2018-11-22T09:48:18.527Z,26.1
2018-11-22T09:51:24.922Z,25.9
2018-11-22T09:54:30.862Z,25.8
2018-11-22T09:57:36.738Z,25.7
2018-11-22T10:00:43.089Z,25.9
2018-11-22T10:03:49.169Z,25.8
2018-11-22T10:06:55.234Z,25.8
2018-11-22T10:10:01.190Z,25.7
2018-11-22T10:13:07.151Z,25.7
2018-11-22T10:16:13.067Z,25.6
2018-11-22T10:19:19.059Z,25.8
2018-11-22T10:22:25.025Z,25.7
2018-11-22T10:25:31.592Z,25.4
2018-11-22T10:28:37.555Z,25.4
2018-11-22T10:31:43.862Z,25.9
2018-11-22T10:34:50.597Z,26.4
2018-11-22T10:37:57.136Z,26.2
2018-11-22T10:41:05.279Z,25.9
2018-11-22T10:44:11.161Z,26.2
2018-11-22T10:47:17.200Z,25.7
2018-11-22T10:50:23.360Z,26
2018-11-22T10:53:29.639Z,25.6
2018-11-22T10:56:37.121Z,25.7
2018-11-22T10:59:43.500Z,25.6
2018-11-22T11:02:49.372Z,25.7
2018-11-22T11:05:55.423Z,25.6
2018-11-22T11:09:02.532Z,25.7
2018-11-22T11:12:08.725Z,25.6
2018-11-22T11:15:14.725Z,25.7
2018-11-22T11:18:20.901Z,25.7
2018-11-22T11:21:27.180Z,25.8
2018-11-22T11:24:34.411Z,25.5
2018-11-22T11:27:47.391Z,25.6
2018-11-22T11:30:54.447Z,25.7
2018-11-22T11:34:01.042Z,25.8
2018-11-22T11:37:08.021Z,25.7
2018-11-22T11:40:14.195Z,25.6
2018-11-22T11:43:20.277Z,25.7
2018-11-22T11:46:27.343Z,25.8
2018-11-22T11:49:33.713Z,26.1
2018-11-22T11:52:39.574Z,26.4
2018-11-22T11:55:46.784Z,26.7
2018-11-22T11:58:52.784Z,26.4
2018-11-22T12:01:58.778Z,26.6
2018-11-22T12:05:04.855Z,26.6
2018-11-22T12:08:11.224Z,26.6
2018-11-22T12:11:17.675Z,26.6
2018-11-22T12:14:23.749Z,26.5
2018-11-22T12:17:29.765Z,26.5
2018-11-22T12:20:35.637Z,26.7
2018-11-22T12:23:41.629Z,26.6
2018-11-22T12:26:47.786Z,26.7
2018-11-22T12:29:53.679Z,27.1
2018-11-22T12:32:59.712Z,26.7
2018-11-22T12:36:05.779Z,28.8
2018-11-22T12:39:11.775Z,28.2
2018-11-22T12:42:17.700Z,27.9
2018-11-22T12:45:23.653Z,27.8
2018-11-22T12:48:29.719Z,27.4
2018-11-22T12:51:35.881Z,27.9
2018-11-22T12:54:41.945Z,27.3
2018-11-22T12:57:48.110Z,26.7
2018-11-22T13:00:54.303Z,26.8
2018-11-22T13:04:00.474Z,26.6
2018-11-22T13:07:07.631Z,26.9
2018-11-22T13:10:13.835Z,27.1
2018-11-22T13:13:24.971Z,27
2018-11-22T13:16:32.175Z,27
2018-11-22T13:19:38.362Z,27.1
2018-11-22T13:22:44.709Z,27.7
2018-11-22T13:25:50.671Z,27.3
2018-11-22T13:28:57.276Z,27.7
2018-11-22T13:32:03.607Z,27
2018-11-22T13:35:09.579Z,26.6
2018-11-22T13:38:18.096Z,26.7
2018-11-22T13:41:26.591Z,26.7
2018-11-22T13:44:32.459Z,26.7
2018-11-22T13:47:38.607Z,26.6
2018-11-22T13:50:44.608Z,26.8
2018-11-22T13:53:51.832Z,28.5
2018-11-22T13:56:57.849Z,27.6
2018-11-22T14:00:04.406Z,27.3
2018-11-22T14:03:11.495Z,27.4
2018-11-22T14:06:17.464Z,27.5
2018-11-22T14:09:24.847Z,27.2
2018-11-22T14:12:31.475Z,27.2
2018-11-22T14:15:39.739Z,27.4
2018-11-22T14:18:48.024Z,27.4
2018-11-22T14:21:54.103Z,27.2
2018-11-22T14:25:00.238Z,27.2
2018-11-22T14:28:06.542Z,27.1
2018-11-22T14:31:12.605Z,27.3
2018-11-22T14:34:18.502Z,27.4
2018-11-22T14:37:25.615Z,27.6
2018-11-22T14:40:31.594Z,27.7
2018-11-22T14:43:38.589Z,27.5
2018-11-22T14:46:45.797Z,27.8
2018-11-22T14:49:51.738Z,27.9
2018-11-22T16:52:57.783Z,31.4
2018-11-22T16:56:03.727Z,30.6
2018-11-22T16:59:09.626Z,30.4
2018-11-22T17:02:15.741Z,30.3
2018-11-22T17:05:21.616Z,30.1
2018-11-22T17:08:27.677Z,30
2018-11-22T17:11:34.029Z,30
2018-11-22T17:14:39.964Z,29.9
2018-11-22T17:17:45.943Z,29.9
2018-11-22T17:20:51.920Z,29.8
2018-11-22T17:23:57.959Z,29.8
2018-11-22T17:27:04.129Z,29.8
2018-11-22T17:30:12.032Z,29.7
2018-11-22T17:33:18.194Z,29.7
2018-11-22T17:36:24.126Z,29.6
2018-11-22T17:39:32.270Z,29.8
2018-11-22T17:42:38.222Z,29.8
2018-11-22T17:45:44.195Z,29.7
2018-11-22T17:48:50.195Z,29.6
2018-11-22T17:51:56.200Z,29.7
2018-11-22T17:55:02.265Z,29.6
2018-11-22T17:58:10.978Z,29.7
2018-11-22T18:01:17.048Z,29.7
2018-11-22T18:04:22.927Z,29.7
2018-11-22T18:07:29.021Z,29.6
2018-11-22T18:10:35.028Z,29.6
2018-11-22T18:13:41.087Z,29.6
2018-11-22T18:16:46.974Z,29.6
2018-11-22T18:19:52.911Z,29.6
2018-11-22T18:22:58.796Z,29.5
2018-11-22T18:26:04.831Z,29.5
2018-11-22T18:29:10.888Z,29.4
2018-11-22T18:32:16.769Z,29.4
2018-11-22T18:35:22.710Z,29.3
2018-11-22T18:38:28.764Z,29.4
2018-11-22T18:41:34.703Z,29.4
2018-11-22T18:44:40.578Z,29.3
2018-11-22T18:47:46.463Z,29.3
2018-11-22T18:50:52.396Z,29.3
2018-11-22T18:53:58.355Z,29.3
2018-11-22T18:57:04.237Z,29.3
2018-11-22T19:00:10.176Z,29.3
2018-11-22T19:03:16.077Z,29.3
2018-11-22T19:06:22.091Z,29.2
2018-11-22T19:09:28.154Z,29.2
2018-11-22T19:12:34.115Z,29.3
2018-11-22T19:15:40.179Z,29.2
2018-11-22T19:18:46.073Z,29.2
2018-11-22T19:21:51.997Z,29.1
2018-11-22T19:24:57.903Z,29.2
2018-11-22T19:28:03.906Z,29.2
2018-11-22T19:31:09.796Z,29.2
2018-11-22T19:34:15.747Z,29.2
2018-11-22T19:37:22.000Z,29.1
2018-11-22T19:40:28.034Z,29.2
2018-11-22T19:43:37.088Z,29.2
2018-11-22T19:46:43.049Z,29.1
2018-11-22T19:49:49.111Z,29.1
2018-11-22T19:52:55.077Z,29.2
2018-11-22T19:56:01.236Z,29.2
2018-11-22T19:59:07.171Z,29.2
2018-11-22T20:02:13.155Z,29.2
2018-11-22T20:05:19.022Z,29.3
2018-11-22T20:08:24.977Z,29.3
2018-11-22T20:11:31.027Z,29.4
2018-11-22T20:14:36.993Z,29.5
2018-11-22T20:17:42.998Z,29.5
2018-11-22T20:20:50.755Z,29.6
2018-11-22T20:23:56.808Z,29.7
2018-11-22T20:27:02.744Z,29.8
2018-11-22T20:30:08.836Z,29.8
2018-11-22T20:33:15.716Z,29.9
2018-11-22T20:36:21.671Z,30
2018-11-22T20:39:27.635Z,30.1
2018-11-22T20:42:33.502Z,30.2
2018-11-22T20:45:41.597Z,30.1
2018-11-22T20:48:47.555Z,30.2
2018-11-22T20:51:53.428Z,30.3
2018-11-22T20:54:59.383Z,30.4
2018-11-22T20:58:05.539Z,30.4
2018-11-22T21:01:11.607Z,30.5
2018-11-22T21:04:17.567Z,30.5
2018-11-22T21:07:23.438Z,30.6
2018-11-22T21:10:29.584Z,30.7
2018-11-22T21:13:35.754Z,30.7
2018-11-22T21:16:41.628Z,30.7
2018-11-22T21:19:47.558Z,30.8
2018-11-22T21:22:53.534Z,30.8
2018-11-22T21:25:59.500Z,30.8
2018-11-22T21:29:05.654Z,30.8
2018-11-22T21:32:11.528Z,30.9
2018-11-22T21:35:17.458Z,30.9
2018-11-22T21:38:23.347Z,30.9
2018-11-22T21:41:29.273Z,30.9
2018-11-22T21:44:35.145Z,31
2018-11-22T21:47:41.191Z,30.9
2018-11-22T21:50:47.153Z,31
2018-11-22T21:53:53.023Z,31.1
2018-11-22T21:56:58.970Z,31.1
2018-11-22T22:00:05.033Z,31.1
2018-11-22T22:03:11.092Z,31.2
2018-11-22T22:06:17.056Z,31.2
2018-11-22T22:09:23.111Z,31.2
2018-11-22T22:12:29.936Z,31.3
2018-11-22T22:15:36.070Z,31.2
2018-11-22T22:18:42.226Z,31.3
2018-11-22T22:21:48.114Z,31.3
2018-11-22T22:24:54.037Z,31.3
2018-11-22T22:28:00.097Z,31.3
2018-11-22T22:31:05.973Z,31.4
2018-11-22T22:34:11.920Z,31.4
2018-11-22T22:37:17.875Z,31.3
2018-11-22T22:40:23.933Z,31.4
2018-11-22T22:43:29.895Z,31.5
2018-11-22T22:46:35.764Z,31.5
2018-11-22T22:49:41.821Z,31.5
2018-11-22T22:52:47.884Z,31.5
2018-11-22T22:55:53.939Z,31.5
2018-11-22T22:59:02.608Z,31.7
2018-11-22T23:02:08.649Z,31.6
2018-11-22T23:05:14.683Z,31.7
2018-11-22T23:08:20.645Z,31.6
2018-11-22T23:11:26.512Z,31.7
2018-11-22T23:14:32.467Z,31.7
2018-11-22T23:17:38.326Z,31.7
2018-11-22T23:20:44.279Z,31.7
2018-11-22T23:23:50.241Z,31.7
2018-11-22T23:26:56.105Z,31.8
2018-11-22T23:30:02.058Z,31.7
2018-11-22T23:33:07.920Z,31.7
2018-11-22T23:36:13.877Z,31.7
2018-11-22T23:39:19.824Z,31.7
2018-11-22T23:42:25.783Z,31.7
2018-11-22T23:45:31.655Z,31.8
2018-11-22T23:48:37.648Z,31.8
2018-11-22T23:51:43.680Z,31.8
2018-11-22T23:54:49.540Z,31.8
2018-11-22T23:57:58.090Z,31.8
